sensor_id;sensor_type;location;lat;lon;timestamp;P1;durP1;ratioP1;P2;durP2;ratioP2
38397;SDS011;24179;52.094;4.408;2024-02-21T00:00:34;31.38;;;5.68;;
38397;SDS011;24179;52.094;4.408;2024-02-21T00:03:43;20.13;;;4.45;;
38397;SDS011;24179;52.094;4.408;2024-02-21T00:06:43;28.30;;;5.25;;
38397;SDS011;24179;52.094;4.408;2024-02-21T00:09:47;23.42;;;4.97;;
38397;SDS011;24179;52.094;4.408;2024-02-21T00:15:52;20.45;;;4.50;;
38397;SDS011;24179;52.094;4.408;2024-02-21T00:18:55;28.05;;;5.72;;
38397;SDS011;24179;52.094;4.408;2024-02-21T00:21:56;33.00;;;6.03;;
38397;SDS011;24179;52.094;4.408;2024-02-21T00:24:59;20.08;;;4.30;;
38397;SDS011;24179;52.094;4.408;2024-02-21T00:28:00;38.93;;;7.03;;
38397;SDS011;24179;52.094;4.408;2024-02-21T00:31:00;32.33;;;6.20;;
38397;SDS011;24179;52.094;4.408;2024-02-21T00:34:01;29.53;;;5.63;;
38397;SDS011;24179;52.094;4.408;2024-02-21T00:37:01;37.83;;;6.43;;
38397;SDS011;24179;52.094;4.408;2024-02-21T00:40:02;37.80;;;6.00;;
38397;SDS011;24179;52.094;4.408;2024-02-21T00:43:03;23.25;;;4.57;;
38397;SDS011;24179;52.094;4.408;2024-02-21T00:46:05;23.90;;;5.30;;
38397;SDS011;24179;52.094;4.408;2024-02-21T00:49:06;34.97;;;5.20;;
38397;SDS011;24179;52.094;4.408;2024-02-21T00:52:07;25.57;;;4.63;;
38397;SDS011;24179;52.094;4.408;2024-02-21T00:55:07;36.70;;;6.53;;
38397;SDS011;24179;52.094;4.408;2024-02-21T00:58:09;27.42;;;4.88;;
38397;SDS011;24179;52.094;4.408;2024-02-21T01:01:09;46.73;;;7.70;;
38397;SDS011;24179;52.094;4.408;2024-02-21T01:04:10;24.77;;;4.67;;
38397;SDS011;24179;52.094;4.408;2024-02-21T01:07:10;39.37;;;6.57;;
38397;SDS011;24179;52.094;4.408;2024-02-21T01:10:11;33.27;;;5.57;;
38397;SDS011;24179;52.094;4.408;2024-02-21T01:13:12;45.23;;;7.50;;
38397;SDS011;24179;52.094;4.408;2024-02-21T01:16:12;24.23;;;4.80;;
38397;SDS011;24179;52.094;4.408;2024-02-21T01:19:13;30.57;;;5.23;;
38397;SDS011;24179;52.094;4.408;2024-02-21T01:22:13;27.47;;;5.07;;
38397;SDS011;24179;52.094;4.408;2024-02-21T01:25:15;29.20;;;4.28;;
38397;SDS011;24179;52.094;4.408;2024-02-21T01:28:16;34.73;;;6.73;;
38397;SDS011;24179;52.094;4.408;2024-02-21T01:34:18;23.73;;;4.97;;
38397;SDS011;24179;52.094;4.408;2024-02-21T01:37:19;26.67;;;5.40;;
38397;SDS011;24179;52.094;4.408;2024-02-21T01:40:19;36.67;;;6.00;;
38397;SDS011;24179;52.094;4.408;2024-02-21T01:43:20;29.03;;;5.30;;
38397;SDS011;24179;52.094;4.408;2024-02-21T01:46:21;35.03;;;5.43;;
38397;SDS011;24179;52.094;4.408;2024-02-21T01:49:22;33.00;;;5.10;;
38397;SDS011;24179;52.094;4.408;2024-02-21T01:52:22;31.77;;;5.67;;
38397;SDS011;24179;52.094;4.408;2024-02-21T01:55:26;32.53;;;5.93;;
38397;SDS011;24179;52.094;4.408;2024-02-21T01:58:29;23.00;;;5.30;;
38397;SDS011;24179;52.094;4.408;2024-02-21T02:01:30;23.95;;;4.93;;
38397;SDS011;24179;52.094;4.408;2024-02-21T02:04:33;25.17;;;5.57;;
38397;SDS011;24179;52.094;4.408;2024-02-21T02:07:35;36.45;;;6.18;;
38397;SDS011;24179;52.094;4.408;2024-02-21T02:10:38;26.48;;;5.80;;
38397;SDS011;24179;52.094;4.408;2024-02-21T02:13:40;31.70;;;5.60;;
38397;SDS011;24179;52.094;4.408;2024-02-21T02:16:42;25.80;;;5.03;;
38397;SDS011;24179;52.094;4.408;2024-02-21T02:19:45;35.78;;;6.50;;
38397;SDS011;24179;52.094;4.408;2024-02-21T02:22:51;29.17;;;5.47;;
38397;SDS011;24179;52.094;4.408;2024-02-21T02:26:02;29.60;;;5.68;;
38397;SDS011;24179;52.094;4.408;2024-02-21T02:29:06;29.75;;;5.55;;
38397;SDS011;24179;52.094;4.408;2024-02-21T02:32:08;22.73;;;4.80;;
38397;SDS011;24179;52.094;4.408;2024-02-21T02:35:09;32.10;;;5.60;;
38397;SDS011;24179;52.094;4.408;2024-02-21T02:38:09;28.93;;;5.20;;
38397;SDS011;24179;52.094;4.408;2024-02-21T02:41:11;31.75;;;5.75;;
38397;SDS011;24179;52.094;4.408;2024-02-21T02:44:12;25.73;;;5.53;;
38397;SDS011;24179;52.094;4.408;2024-02-21T02:47:12;28.93;;;6.53;;
38397;SDS011;24179;52.094;4.408;2024-02-21T02:50:13;26.47;;;5.57;;
38397;SDS011;24179;52.094;4.408;2024-02-21T02:53:20;23.02;;;4.57;;
38397;SDS011;24179;52.094;4.408;2024-02-21T02:56:20;33.40;;;5.47;;
38397;SDS011;24179;52.094;4.408;2024-02-21T02:59:23;29.50;;;5.25;;
38397;SDS011;24179;52.094;4.408;2024-02-21T03:02:27;35.65;;;6.18;;
38397;SDS011;24179;52.094;4.408;2024-02-21T03:05:30;29.65;;;5.95;;
38397;SDS011;24179;52.094;4.408;2024-02-21T03:08:31;37.05;;;7.00;;
38397;SDS011;24179;52.094;4.408;2024-02-21T03:11:32;23.70;;;5.38;;
38397;SDS011;24179;52.094;4.408;2024-02-21T03:14:33;27.50;;;6.70;;
38397;SDS011;24179;52.094;4.408;2024-02-21T03:17:34;29.37;;;5.80;;
38397;SDS011;24179;52.094;4.408;2024-02-21T03:20:34;40.70;;;8.17;;
38397;SDS011;24179;52.094;4.408;2024-02-21T03:23:35;25.00;;;5.40;;
38397;SDS011;24179;52.094;4.408;2024-02-21T03:26:36;23.60;;;5.55;;
38397;SDS011;24179;52.094;4.408;2024-02-21T03:29:37;27.87;;;6.47;;
38397;SDS011;24179;52.094;4.408;2024-02-21T03:32:38;22.90;;;5.50;;
38397;SDS011;24179;52.094;4.408;2024-02-21T03:35:39;23.83;;;5.05;;
38397;SDS011;24179;52.094;4.408;2024-02-21T03:38:41;28.63;;;5.47;;
38397;SDS011;24179;52.094;4.408;2024-02-21T03:41:43;24.67;;;5.82;;
38397;SDS011;24179;52.094;4.408;2024-02-21T03:44:43;19.73;;;5.70;;
38397;SDS011;24179;52.094;4.408;2024-02-21T03:47:44;37.53;;;7.83;;
38397;SDS011;24179;52.094;4.408;2024-02-21T03:50:45;27.20;;;6.50;;
38397;SDS011;24179;52.094;4.408;2024-02-21T03:53:45;25.17;;;6.70;;
38397;SDS011;24179;52.094;4.408;2024-02-21T03:56:46;28.37;;;6.13;;
38397;SDS011;24179;52.094;4.408;2024-02-21T03:59:50;30.90;;;6.80;;
38397;SDS011;24179;52.094;4.408;2024-02-21T04:02:52;26.55;;;7.35;;
38397;SDS011;24179;52.094;4.408;2024-02-21T04:05:53;28.77;;;7.50;;
38397;SDS011;24179;52.094;4.408;2024-02-21T04:08:55;20.63;;;5.55;;
38397;SDS011;24179;52.094;4.408;2024-02-21T04:11:56;21.75;;;6.18;;
38397;SDS011;24179;52.094;4.408;2024-02-21T04:14:57;20.73;;;7.03;;
38397;SDS011;24179;52.094;4.408;2024-02-21T04:17:58;23.83;;;6.75;;
38397;SDS011;24179;52.094;4.408;2024-02-21T04:20:58;33.97;;;7.17;;
38397;SDS011;24179;52.094;4.408;2024-02-21T04:23:59;22.53;;;6.67;;
38397;SDS011;24179;52.094;4.408;2024-02-21T04:27:01;26.58;;;6.95;;
38397;SDS011;24179;52.094;4.408;2024-02-21T04:30:02;23.57;;;6.80;;
38397;SDS011;24179;52.094;4.408;2024-02-21T04:33:03;20.30;;;6.43;;
38397;SDS011;24179;52.094;4.408;2024-02-21T04:36:04;21.53;;;6.60;;
38397;SDS011;24179;52.094;4.408;2024-02-21T04:39:05;30.90;;;7.53;;
38397;SDS011;24179;52.094;4.408;2024-02-21T04:42:05;15.37;;;5.70;;
38397;SDS011;24179;52.094;4.408;2024-02-21T04:45:06;23.70;;;6.17;;
38397;SDS011;24179;52.094;4.408;2024-02-21T04:48:09;20.88;;;6.20;;
38397;SDS011;24179;52.094;4.408;2024-02-21T04:51:09;24.83;;;7.10;;
38397;SDS011;24179;52.094;4.408;2024-02-21T04:54:11;23.70;;;6.63;;
38397;SDS011;24179;52.094;4.408;2024-02-21T04:57:12;24.70;;;5.83;;
38397;SDS011;24179;52.094;4.408;2024-02-21T05:00:16;17.75;;;6.10;;
38397;SDS011;24179;52.094;4.408;2024-02-21T05:03:17;20.83;;;6.60;;
38397;SDS011;24179;52.094;4.408;2024-02-21T05:06:18;23.40;;;5.97;;
38397;SDS011;24179;52.094;4.408;2024-02-21T05:09:19;20.83;;;6.60;;
38397;SDS011;24179;52.094;4.408;2024-02-21T05:12:19;15.10;;;5.90;;
38397;SDS011;24179;52.094;4.408;2024-02-21T05:15:20;20.73;;;6.30;;
38397;SDS011;24179;52.094;4.408;2024-02-21T05:18:20;22.80;;;5.97;;
38397;SDS011;24179;52.094;4.408;2024-02-21T05:21:23;25.52;;;7.40;;
38397;SDS011;24179;52.094;4.408;2024-02-21T05:24:24;15.30;;;5.85;;
38397;SDS011;24179;52.094;4.408;2024-02-21T05:27:26;20.52;;;6.85;;
38397;SDS011;24179;52.094;4.408;2024-02-21T05:30:27;20.67;;;7.20;;
38397;SDS011;24179;52.094;4.408;2024-02-21T05:33:29;16.77;;;7.38;;
38397;SDS011;24179;52.094;4.408;2024-02-21T05:36:30;27.73;;;7.77;;
38397;SDS011;24179;52.094;4.408;2024-02-21T05:39:30;21.00;;;6.90;;
38397;SDS011;24179;52.094;4.408;2024-02-21T05:42:31;17.60;;;6.60;;
38397;SDS011;24179;52.094;4.408;2024-02-21T05:45:32;22.17;;;8.05;;
38397;SDS011;24179;52.094;4.408;2024-02-21T05:48:33;15.90;;;6.93;;
38397;SDS011;24179;52.094;4.408;2024-02-21T05:51:34;26.37;;;8.00;;
38397;SDS011;24179;52.094;4.408;2024-02-21T05:54:37;17.63;;;7.28;;
38397;SDS011;24179;52.094;4.408;2024-02-21T05:57:39;21.42;;;7.70;;
38397;SDS011;24179;52.094;4.408;2024-02-21T06:00:42;21.38;;;7.78;;
38397;SDS011;24179;52.094;4.408;2024-02-21T06:03:43;16.23;;;6.82;;
38397;SDS011;24179;52.094;4.408;2024-02-21T06:06:44;18.43;;;6.90;;
38397;SDS011;24179;52.094;4.408;2024-02-21T06:09:48;13.75;;;7.32;;
38397;SDS011;24179;52.094;4.408;2024-02-21T06:12:50;20.63;;;8.05;;
38397;SDS011;24179;52.094;4.408;2024-02-21T06:15:52;18.65;;;7.22;;
38397;SDS011;24179;52.094;4.408;2024-02-21T06:18:53;11.25;;;6.40;;
38397;SDS011;24179;52.094;4.408;2024-02-21T06:21:54;17.77;;;7.93;;
38397;SDS011;24179;52.094;4.408;2024-02-21T06:24:54;18.97;;;8.23;;
38397;SDS011;24179;52.094;4.408;2024-02-21T06:27:55;10.43;;;6.87;;
38397;SDS011;24179;52.094;4.408;2024-02-21T06:30:55;24.13;;;8.13;;
38397;SDS011;24179;52.094;4.408;2024-02-21T06:33:56;20.77;;;7.80;;
38397;SDS011;24179;52.094;4.408;2024-02-21T06:36:57;21.03;;;8.60;;
38397;SDS011;24179;52.094;4.408;2024-02-21T06:39:58;18.47;;;8.77;;
38397;SDS011;24179;52.094;4.408;2024-02-21T06:42:59;18.13;;;8.50;;
38397;SDS011;24179;52.094;4.408;2024-02-21T06:46:00;29.03;;;10.03;;
38397;SDS011;24179;52.094;4.408;2024-02-21T06:49:02;18.23;;;8.98;;
38397;SDS011;24179;52.094;4.408;2024-02-21T06:52:04;22.58;;;9.27;;
38397;SDS011;24179;52.094;4.408;2024-02-21T06:55:05;22.65;;;8.75;;
38397;SDS011;24179;52.094;4.408;2024-02-21T06:58:08;24.75;;;9.45;;
38397;SDS011;24179;52.094;4.408;2024-02-21T07:01:11;20.73;;;9.80;;
38397;SDS011;24179;52.094;4.408;2024-02-21T07:04:12;21.85;;;9.27;;
38397;SDS011;24179;52.094;4.408;2024-02-21T07:07:13;25.37;;;9.90;;
38397;SDS011;24179;52.094;4.408;2024-02-21T07:10:15;29.98;;;10.38;;
38397;SDS011;24179;52.094;4.408;2024-02-21T07:13:17;32.27;;;10.33;;
38397;SDS011;24179;52.094;4.408;2024-02-21T07:16:23;28.65;;;10.95;;
38397;SDS011;24179;52.094;4.408;2024-02-21T07:19:24;26.23;;;10.82;;
38397;SDS011;24179;52.094;4.408;2024-02-21T07:22:26;24.33;;;11.17;;
38397;SDS011;24179;52.094;4.408;2024-02-21T07:25:26;29.42;;;11.27;;
38397;SDS011;24179;52.094;4.408;2024-02-21T07:28:27;26.33;;;11.17;;
38397;SDS011;24179;52.094;4.408;2024-02-21T07:31:29;22.50;;;10.23;;
38397;SDS011;24179;52.094;4.408;2024-02-21T07:34:29;29.15;;;11.25;;
38397;SDS011;24179;52.094;4.408;2024-02-21T07:37:30;28.60;;;11.03;;
38397;SDS011;24179;52.094;4.408;2024-02-21T07:40:32;27.17;;;10.63;;
38397;SDS011;24179;52.094;4.408;2024-02-21T07:43:36;30.13;;;11.85;;
38397;SDS011;24179;52.094;4.408;2024-02-21T07:46:37;34.17;;;11.50;;
38397;SDS011;24179;52.094;4.408;2024-02-21T07:49:43;37.47;;;12.50;;
38397;SDS011;24179;52.094;4.408;2024-02-21T07:52:47;33.05;;;12.10;;
38397;SDS011;24179;52.094;4.408;2024-02-21T07:55:49;26.25;;;12.35;;
38397;SDS011;24179;52.094;4.408;2024-02-21T07:58:49;31.42;;;13.18;;
38397;SDS011;24179;52.094;4.408;2024-02-21T08:01:50;24.73;;;11.47;;
38397;SDS011;24179;52.094;4.408;2024-02-21T08:04:53;31.50;;;11.40;;
38397;SDS011;24179;52.094;4.408;2024-02-21T08:07:54;26.88;;;11.90;;
38397;SDS011;24179;52.094;4.408;2024-02-21T08:10:55;29.42;;;11.77;;
38397;SDS011;24179;52.094;4.408;2024-02-21T08:13:56;23.70;;;11.13;;
38397;SDS011;24179;52.094;4.408;2024-02-21T08:16:58;29.38;;;12.15;;
38397;SDS011;24179;52.094;4.408;2024-02-21T08:23:05;31.75;;;11.70;;
38397;SDS011;24179;52.094;4.408;2024-02-21T08:26:07;34.67;;;12.93;;
38397;SDS011;24179;52.094;4.408;2024-02-21T08:29:07;31.53;;;11.90;;
38397;SDS011;24179;52.094;4.408;2024-02-21T08:32:09;27.17;;;11.05;;
38397;SDS011;24179;52.094;4.408;2024-02-21T08:35:10;21.40;;;9.90;;
38397;SDS011;24179;52.094;4.408;2024-02-21T08:38:12;21.65;;;10.82;;
38397;SDS011;24179;52.094;4.408;2024-02-21T08:41:14;25.60;;;11.23;;
38397;SDS011;24179;52.094;4.408;2024-02-21T08:44:15;31.58;;;12.73;;
38397;SDS011;24179;52.094;4.408;2024-02-21T08:47:16;27.50;;;12.50;;
38397;SDS011;24179;52.094;4.408;2024-02-21T08:50:17;26.70;;;11.67;;
38397;SDS011;24179;52.094;4.408;2024-02-21T08:53:20;31.30;;;12.43;;
38397;SDS011;24179;52.094;4.408;2024-02-21T08:56:21;27.33;;;13.07;;
38397;SDS011;24179;52.094;4.408;2024-02-21T08:59:26;29.75;;;12.40;;
38397;SDS011;24179;52.094;4.408;2024-02-21T09:02:28;31.67;;;12.25;;
38397;SDS011;24179;52.094;4.408;2024-02-21T09:05:30;26.90;;;11.73;;
38397;SDS011;24179;52.094;4.408;2024-02-21T09:08:32;27.33;;;11.90;;
38397;SDS011;24179;52.094;4.408;2024-02-21T09:11:34;26.60;;;13.07;;
38397;SDS011;24179;52.094;4.408;2024-02-21T09:14:36;23.97;;;11.00;;
38397;SDS011;24179;52.094;4.408;2024-02-21T09:17:40;28.52;;;12.90;;
38397;SDS011;24179;52.094;4.408;2024-02-21T09:20:41;24.00;;;11.23;;
38397;SDS011;24179;52.094;4.408;2024-02-21T09:23:42;20.50;;;10.85;;
38397;SDS011;24179;52.094;4.408;2024-02-21T09:26:45;26.13;;;11.48;;
38397;SDS011;24179;52.094;4.408;2024-02-21T09:29:49;27.33;;;12.13;;
38397;SDS011;24179;52.094;4.408;2024-02-21T09:32:50;26.30;;;11.17;;
38397;SDS011;24179;52.094;4.408;2024-02-21T09:35:54;29.38;;;11.73;;
38397;SDS011;24179;52.094;4.408;2024-02-21T09:38:55;26.83;;;12.10;;
38397;SDS011;24179;52.094;4.408;2024-02-21T09:41:58;29.95;;;11.82;;
38397;SDS011;24179;52.094;4.408;2024-02-21T09:45:17;25.48;;;11.18;;
38397;SDS011;24179;52.094;4.408;2024-02-21T09:48:26;26.75;;;13.25;;
38397;SDS011;24179;52.094;4.408;2024-02-21T09:51:42;25.45;;;11.70;;
38397;SDS011;24179;52.094;4.408;2024-02-21T09:54:45;29.98;;;11.88;;
38397;SDS011;24179;52.094;4.408;2024-02-21T09:57:48;22.25;;;11.52;;
38397;SDS011;24179;52.094;4.408;2024-02-21T10:00:51;24.45;;;11.45;;
38397;SDS011;24179;52.094;4.408;2024-02-21T10:03:51;35.23;;;13.40;;
38397;SDS011;24179;52.094;4.408;2024-02-21T10:06:58;25.77;;;12.02;;
38397;SDS011;24179;52.094;4.408;2024-02-21T10:10:02;30.75;;;11.82;;
38397;SDS011;24179;52.094;4.408;2024-02-21T10:13:06;22.40;;;10.45;;
38397;SDS011;24179;52.094;4.408;2024-02-21T10:16:11;21.25;;;10.38;;
38397;SDS011;24179;52.094;4.408;2024-02-21T10:19:19;23.48;;;10.68;;
38397;SDS011;24179;52.094;4.408;2024-02-21T10:22:23;28.00;;;11.48;;
38397;SDS011;24179;52.094;4.408;2024-02-21T10:25:31;24.60;;;11.27;;
38397;SDS011;24179;52.094;4.408;2024-02-21T10:28:35;24.90;;;11.05;;
38397;SDS011;24179;52.094;4.408;2024-02-21T10:31:37;34.67;;;12.73;;
38397;SDS011;24179;52.094;4.408;2024-02-21T10:34:42;24.92;;;10.85;;
38397;SDS011;24179;52.094;4.408;2024-02-21T10:37:43;28.48;;;11.32;;
38397;SDS011;24179;52.094;4.408;2024-02-21T10:40:45;22.35;;;10.93;;
38397;SDS011;24179;52.094;4.408;2024-02-21T10:44:01;22.35;;;11.35;;
38397;SDS011;24179;52.094;4.408;2024-02-21T10:47:09;25.05;;;11.07;;
38397;SDS011;24179;52.094;4.408;2024-02-21T10:50:22;29.30;;;12.93;;
38397;SDS011;24179;52.094;4.408;2024-02-21T10:56:42;28.40;;;12.63;;
38397;SDS011;24179;52.094;4.408;2024-02-21T10:59:46;28.20;;;11.57;;
38397;SDS011;24179;52.094;4.408;2024-02-21T11:02:50;23.42;;;12.18;;
38397;SDS011;24179;52.094;4.408;2024-02-21T11:05:54;22.98;;;11.48;;
38397;SDS011;24179;52.094;4.408;2024-02-21T11:09:04;21.70;;;11.70;;
38397;SDS011;24179;52.094;4.408;2024-02-21T11:12:11;21.83;;;11.30;;
38397;SDS011;24179;52.094;4.408;2024-02-21T11:15:11;19.77;;;11.00;;
38397;SDS011;24179;52.094;4.408;2024-02-21T11:18:22;25.08;;;11.90;;
38397;SDS011;24179;52.094;4.408;2024-02-21T11:24:33;17.90;;;10.57;;
38397;SDS011;24179;52.094;4.408;2024-02-21T11:27:34;26.50;;;12.23;;
38397;SDS011;24179;52.094;4.408;2024-02-21T11:30:35;20.27;;;11.27;;
38397;SDS011;24179;52.094;4.408;2024-02-21T11:33:40;28.40;;;13.50;;
38397;SDS011;24179;52.094;4.408;2024-02-21T11:36:51;30.27;;;12.95;;
38397;SDS011;24179;52.094;4.408;2024-02-21T11:39:53;22.17;;;12.10;;
38397;SDS011;24179;52.094;4.408;2024-02-21T11:42:58;27.50;;;11.98;;
38397;SDS011;24179;52.094;4.408;2024-02-21T11:46:05;23.63;;;11.25;;
38397;SDS011;24179;52.094;4.408;2024-02-21T11:49:18;27.23;;;12.73;;
38397;SDS011;24179;52.094;4.408;2024-02-21T11:52:23;28.17;;;12.65;;
38397;SDS011;24179;52.094;4.408;2024-02-21T11:55:25;27.92;;;11.93;;
38397;SDS011;24179;52.094;4.408;2024-02-21T11:58:25;24.53;;;11.57;;
38397;SDS011;24179;52.094;4.408;2024-02-21T12:01:48;23.60;;;11.27;;
38397;SDS011;24179;52.094;4.408;2024-02-21T12:04:48;26.10;;;11.73;;
38397;SDS011;24179;52.094;4.408;2024-02-21T12:07:49;21.08;;;11.00;;
38397;SDS011;24179;52.094;4.408;2024-02-21T12:10:50;21.65;;;10.20;;
38397;SDS011;24179;52.094;4.408;2024-02-21T12:14:03;28.10;;;12.48;;
38397;SDS011;24179;52.094;4.408;2024-02-21T12:17:05;20.38;;;10.23;;
38397;SDS011;24179;52.094;4.408;2024-02-21T12:20:06;18.27;;;9.60;;
38397;SDS011;24179;52.094;4.408;2024-02-21T12:23:28;19.73;;;10.18;;
38397;SDS011;24179;52.094;4.408;2024-02-21T12:26:30;19.55;;;10.18;;
38397;SDS011;24179;52.094;4.408;2024-02-21T12:29:31;18.38;;;10.10;;
38397;SDS011;24179;52.094;4.408;2024-02-21T12:32:32;15.73;;;9.10;;
38397;SDS011;24179;52.094;4.408;2024-02-21T12:35:33;23.40;;;9.40;;
38397;SDS011;24179;52.094;4.408;2024-02-21T12:38:33;18.70;;;9.30;;
38397;SDS011;24179;52.094;4.408;2024-02-21T12:41:37;15.35;;;9.23;;
38397;SDS011;24179;52.094;4.408;2024-02-21T12:44:39;17.05;;;9.32;;
38397;SDS011;24179;52.094;4.408;2024-02-21T12:47:46;14.43;;;9.52;;
38397;SDS011;24179;52.094;4.408;2024-02-21T12:50:49;10.17;;;7.90;;
38397;SDS011;24179;52.094;4.408;2024-02-21T12:53:53;21.00;;;9.43;;
38397;SDS011;24179;52.094;4.408;2024-02-21T12:56:54;15.35;;;8.70;;
38397;SDS011;24179;52.094;4.408;2024-02-21T12:59:57;10.20;;;8.02;;
38397;SDS011;24179;52.094;4.408;2024-02-21T13:02:57;16.23;;;9.43;;
38397;SDS011;24179;52.094;4.408;2024-02-21T13:05:59;16.63;;;9.45;;
38397;SDS011;24179;52.094;4.408;2024-02-21T13:09:00;13.80;;;9.13;;
38397;SDS011;24179;52.094;4.408;2024-02-21T13:12:03;21.77;;;9.73;;
38397;SDS011;24179;52.094;4.408;2024-02-21T13:15:05;18.20;;;9.73;;
38397;SDS011;24179;52.094;4.408;2024-02-21T13:18:21;18.52;;;9.30;;
38397;SDS011;24179;52.094;4.408;2024-02-21T13:21:36;12.48;;;8.60;;
38397;SDS011;24179;52.094;4.408;2024-02-21T13:24:49;20.13;;;10.13;;
38397;SDS011;24179;52.094;4.408;2024-02-21T13:27:50;20.60;;;8.93;;
38397;SDS011;24179;52.094;4.408;2024-02-21T13:31:09;24.10;;;10.45;;
38397;SDS011;24179;52.094;4.408;2024-02-21T13:34:18;19.77;;;10.17;;
38397;SDS011;24179;52.094;4.408;2024-02-21T13:37:36;24.45;;;10.45;;
38397;SDS011;24179;52.094;4.408;2024-02-21T13:40:37;28.15;;;12.07;;
38397;SDS011;24179;52.094;4.408;2024-02-21T13:43:38;21.80;;;10.43;;
38397;SDS011;24179;52.094;4.408;2024-02-21T13:46:38;26.23;;;11.80;;
38397;SDS011;24179;52.094;4.408;2024-02-21T13:49:39;18.70;;;10.30;;
38397;SDS011;24179;52.094;4.408;2024-02-21T13:52:46;17.73;;;10.27;;
38397;SDS011;24179;52.094;4.408;2024-02-21T13:55:48;26.50;;;11.63;;
38397;SDS011;24179;52.094;4.408;2024-02-21T13:58:52;21.05;;;10.77;;
38397;SDS011;24179;52.094;4.408;2024-02-21T14:01:54;21.45;;;11.73;;
38397;SDS011;24179;52.094;4.408;2024-02-21T14:05:01;21.38;;;11.82;;
38397;SDS011;24179;52.094;4.408;2024-02-21T14:08:06;22.00;;;11.77;;
38397;SDS011;24179;52.094;4.408;2024-02-21T14:11:13;20.60;;;11.95;;
38397;SDS011;24179;52.094;4.408;2024-02-21T14:14:55;21.95;;;12.07;;
38397;SDS011;24179;52.094;4.408;2024-02-21T14:17:58;23.17;;;11.77;;
38397;SDS011;24179;52.094;4.408;2024-02-21T14:21:14;27.92;;;12.40;;
38397;SDS011;24179;52.094;4.408;2024-02-21T14:24:15;17.00;;;10.70;;
38397;SDS011;24179;52.094;4.408;2024-02-21T14:27:22;16.05;;;10.23;;
38397;SDS011;24179;52.094;4.408;2024-02-21T14:30:33;19.38;;;9.82;;
38397;SDS011;24179;52.094;4.408;2024-02-21T14:33:36;26.83;;;10.75;;
38397;SDS011;24179;52.094;4.408;2024-02-21T14:36:54;16.10;;;8.80;;
38397;SDS011;24179;52.094;4.408;2024-02-21T14:40:00;17.63;;;8.65;;
38397;SDS011;24179;52.094;4.408;2024-02-21T14:43:12;22.10;;;9.70;;
38397;SDS011;24179;52.094;4.408;2024-02-21T14:46:13;12.43;;;7.30;;
38397;SDS011;24179;52.094;4.408;2024-02-21T14:49:19;20.58;;;8.93;;
38397;SDS011;24179;52.094;4.408;2024-02-21T14:52:20;17.20;;;8.57;;
38397;SDS011;24179;52.094;4.408;2024-02-21T14:55:26;17.50;;;8.55;;
38397;SDS011;24179;52.094;4.408;2024-02-21T14:58:31;12.82;;;7.78;;
38397;SDS011;24179;52.094;4.408;2024-02-21T15:01:36;10.00;;;7.22;;
38397;SDS011;24179;52.094;4.408;2024-02-21T15:04:40;14.82;;;7.90;;
38397;SDS011;24179;52.094;4.408;2024-02-21T15:07:43;14.65;;;8.15;;
38397;SDS011;24179;52.094;4.408;2024-02-21T15:10:46;14.05;;;7.63;;
38397;SDS011;24179;52.094;4.408;2024-02-21T15:13:47;14.23;;;7.73;;
38397;SDS011;24179;52.094;4.408;2024-02-21T15:16:47;11.50;;;7.00;;
38397;SDS011;24179;52.094;4.408;2024-02-21T15:19:48;12.20;;;7.30;;
38397;SDS011;24179;52.094;4.408;2024-02-21T15:25:50;9.73;;;6.32;;
38397;SDS011;24179;52.094;4.408;2024-02-21T15:28:51;11.60;;;6.80;;
38397;SDS011;24179;52.094;4.408;2024-02-21T15:31:54;12.20;;;7.03;;
38397;SDS011;24179;52.094;4.408;2024-02-21T15:34:56;9.05;;;6.03;;
38397;SDS011;24179;52.094;4.408;2024-02-21T15:37:57;12.80;;;6.67;;
38397;SDS011;24179;52.094;4.408;2024-02-21T15:41:00;10.63;;;6.25;;
38397;SDS011;24179;52.094;4.408;2024-02-21T15:44:01;12.63;;;7.97;;
38397;SDS011;24179;52.094;4.408;2024-02-21T15:47:04;21.95;;;7.75;;
38397;SDS011;24179;52.094;4.408;2024-02-21T15:50:05;8.13;;;6.35;;
38397;SDS011;24179;52.094;4.408;2024-02-21T15:53:06;16.85;;;7.90;;
38397;SDS011;24179;52.094;4.408;2024-02-21T15:56:07;9.53;;;6.30;;
38397;SDS011;24179;52.094;4.408;2024-02-21T15:59:07;12.03;;;6.13;;
38397;SDS011;24179;52.094;4.408;2024-02-21T16:02:20;10.05;;;6.43;;
38397;SDS011;24179;52.094;4.408;2024-02-21T16:05:21;8.35;;;5.97;;
38397;SDS011;24179;52.094;4.408;2024-02-21T16:08:24;9.68;;;6.65;;
38397;SDS011;24179;52.094;4.408;2024-02-21T16:14:27;7.45;;;5.72;;
38397;SDS011;24179;52.094;4.408;2024-02-21T16:17:29;13.00;;;6.60;;
38397;SDS011;24179;52.094;4.408;2024-02-21T16:20:29;12.53;;;6.63;;
38397;SDS011;24179;52.094;4.408;2024-02-21T16:23:35;12.85;;;6.35;;
38397;SDS011;24179;52.094;4.408;2024-02-21T16:26:38;19.67;;;7.47;;
38397;SDS011;24179;52.094;4.408;2024-02-21T16:29:42;15.48;;;7.15;;
38397;SDS011;24179;52.094;4.408;2024-02-21T16:32:43;12.90;;;6.68;;
38397;SDS011;24179;52.094;4.408;2024-02-21T16:35:43;9.33;;;5.90;;
38397;SDS011;24179;52.094;4.408;2024-02-21T16:38:46;9.70;;;5.63;;
38397;SDS011;24179;52.094;4.408;2024-02-21T16:41:51;16.70;;;6.47;;
38397;SDS011;24179;52.094;4.408;2024-02-21T16:45:02;11.40;;;5.80;;
38397;SDS011;24179;52.094;4.408;2024-02-21T16:48:08;8.45;;;5.25;;
38397;SDS011;24179;52.094;4.408;2024-02-21T16:51:20;13.23;;;6.00;;
38397;SDS011;24179;52.094;4.408;2024-02-21T16:54:21;9.80;;;5.00;;
38397;SDS011;24179;52.094;4.408;2024-02-21T16:57:22;15.45;;;6.20;;
38397;SDS011;24179;52.094;4.408;2024-02-21T17:00:33;8.90;;;5.20;;
38397;SDS011;24179;52.094;4.408;2024-02-21T17:03:41;6.57;;;5.22;;
38397;SDS011;24179;52.094;4.408;2024-02-21T17:06:46;9.43;;;5.60;;
38397;SDS011;24179;52.094;4.408;2024-02-21T17:09:46;8.88;;;5.07;;
38397;SDS011;24179;52.094;4.408;2024-02-21T17:12:59;12.43;;;5.90;;
38397;SDS011;24179;52.094;4.408;2024-02-21T17:16:02;6.78;;;5.13;;
38397;SDS011;24179;52.094;4.408;2024-02-21T17:19:17;9.30;;;4.97;;
38397;SDS011;24179;52.094;4.408;2024-02-21T17:22:18;7.63;;;4.60;;
38397;SDS011;24179;52.094;4.408;2024-02-21T17:25:26;7.30;;;4.75;;
38397;SDS011;24179;52.094;4.408;2024-02-21T17:28:26;13.50;;;5.70;;
38397;SDS011;24179;52.094;4.408;2024-02-21T17:31:27;8.23;;;5.37;;
38397;SDS011;24179;52.094;4.408;2024-02-21T17:34:36;8.38;;;5.07;;
38397;SDS011;24179;52.094;4.408;2024-02-21T17:37:52;13.32;;;5.72;;
38397;SDS011;24179;52.094;4.408;2024-02-21T17:40:53;7.13;;;4.65;;
38397;SDS011;24179;52.094;4.408;2024-02-21T17:43:55;11.00;;;5.37;;
38397;SDS011;24179;52.094;4.408;2024-02-21T17:46:58;7.63;;;4.85;;
38397;SDS011;24179;52.094;4.408;2024-02-21T17:50:10;7.53;;;5.20;;
38397;SDS011;24179;52.094;4.408;2024-02-21T17:53:27;10.02;;;5.22;;
38397;SDS011;24179;52.094;4.408;2024-02-21T17:56:32;12.98;;;5.75;;
38397;SDS011;24179;52.094;4.408;2024-02-21T17:59:40;8.25;;;5.05;;
38397;SDS011;24179;52.094;4.408;2024-02-21T18:02:45;6.82;;;5.28;;
38397;SDS011;24179;52.094;4.408;2024-02-21T18:09:31;11.50;;;5.45;;
38397;SDS011;24179;52.094;4.408;2024-02-21T18:12:40;9.27;;;5.10;;
38397;SDS011;24179;52.094;4.408;2024-02-21T18:15:41;15.60;;;5.50;;
38397;SDS011;24179;52.094;4.408;2024-02-21T18:18:44;9.02;;;4.95;;
38397;SDS011;24179;52.094;4.408;2024-02-21T18:21:45;8.03;;;4.43;;
38397;SDS011;24179;52.094;4.408;2024-02-21T18:27:50;9.05;;;4.95;;
38397;SDS011;24179;52.094;4.408;2024-02-21T18:30:52;10.27;;;5.28;;